Time;durP1;ratioP1;P1;durP2;ratioP2;P2;SDS_P1;SDS_P2;PMS_P1;PMS_P2;Temp;Humidity;BMP_temperature;BMP_pressure;BME280_temperature;BME280_humidity;BME280_pressure;Samples;Min_cycle;Max_cycle;Signal;HPM_P1;HPM_P2
2023/12/06 00:01:33;;;;;;;53.25;28.30;;;0.50;99.90;;;;;;4961965;28;20554;-85
2023/12/06 00:03:59;;;;;;;51.28;28.23;;;0.90;99.90;;;;;;4962340;28;20053;-84
2023/12/06 00:06:24;;;;;;;52.85;28.88;;;0.40;99.90;;;;;;4979461;28;20051;-83
2023/12/06 00:08:52;;;;;;;52.88;29.25;;;1.20;99.90;;;;;;4978600;28;20459;-84
2023/12/06 00:11:19;;;;;;;52.80;29.15;;;1.50;99.90;;;;;;4962664;28;20054;-85
2023/12/06 00:13:45;;;;;;;51.63;28.83;;;1.00;99.90;;;;;;4978406;28;20547;-84
2023/12/06 00:16:10;;;;;;;54.00;29.17;;;0.80;99.90;;;;;;4975394;28;20130;-85
2023/12/06 00:18:36;;;;;;;49.47;28.48;;;1.60;99.90;;;;;;4959681;28;20043;-83
2023/12/06 00:21:02;;;;;;;54.90;29.17;;;0.50;99.90;;;;;;4959000;28;20078;-84
2023/12/06 00:23:27;;;;;;;50.85;28.75;;;0.50;99.90;;;;;;4959172;28;20053;-84
2023/12/06 00:25:53;;;;;;;53.00;29.33;;;1.20;99.90;;;;;;4976202;28;20058;-86
2023/12/06 00:28:19;;;;;;;53.05;29.13;;;0.90;99.90;;;;;;4975995;28;20034;-85
2023/12/06 00:30:44;;;;;;;54.17;30.50;;;1.00;99.90;;;;;;4958516;28;20145;-84
2023/12/06 00:33:10;;;;;;;50.40;28.58;;;0.70;99.90;;;;;;4976786;28;20057;-84
2023/12/06 00:35:36;;;;;;;51.67;28.10;;;2.10;99.90;;;;;;4958788;28;20043;-88
2023/12/06 00:38:01;;;;;;;55.35;28.85;;;0.50;99.90;;;;;;4942381;28;20113;-85
2023/12/06 00:40:28;;;;;;;54.22;29.13;;;0.00;99.90;;;;;;4976043;28;20081;-85
2023/12/06 00:42:53;;;;;;;45.70;26.50;;;0.20;99.90;;;;;;4959105;28;20108;-87
2023/12/06 00:45:20;;;;;;;57.00;29.83;;;1.50;99.90;;;;;;4976097;28;20046;-86
2023/12/06 00:47:45;;;;;;;57.92;30.60;;;0.70;99.90;;;;;;4958189;28;20391;-83
2023/12/06 00:50:11;;;;;;;57.40;29.80;;;0.50;99.90;;;;;;4975790;28;20062;-84
2023/12/06 00:52:37;;;;;;;50.88;28.20;;;0.50;99.90;;;;;;4975734;28;20114;-86
2023/12/06 00:55:03;;;;;;;58.65;30.00;;;0.50;99.90;;;;;;4975774;28;20039;-85
2023/12/06 00:57:29;;;;;;;54.00;28.88;;;0.50;99.90;;;;;;4974468;28;20039;-85
2023/12/06 00:59:55;;;;;;;54.33;29.48;;;0.90;99.90;;;;;;4975541;28;20058;-84
2023/12/06 01:02:23;;;;;;;53.28;29.45;;;0.50;99.90;;;;;;4975320;28;20038;-84
2023/12/06 01:04:50;;;;;;;49.33;28.67;;;1.40;99.90;;;;;;4975693;28;20121;-84
2023/12/06 01:07:17;;;;;;;58.28;29.33;;;0.50;99.90;;;;;;4958481;28;20052;-85
2023/12/06 01:09:44;;;;;;;54.75;29.08;;;1.20;99.90;;;;;;4958326;28;20385;-85
2023/12/06 01:12:10;;;;;;;56.40;28.77;;;0.50;99.90;;;;;;4975960;28;20085;-84
2023/12/06 01:14:36;;;;;;;53.40;28.95;;;1.70;99.90;;;;;;4958394;28;20504;-84
2023/12/06 01:17:01;;;;;;;56.65;28.50;;;0.50;99.90;;;;;;4941846;28;20057;-85
2023/12/06 01:19:27;;;;;;;55.28;28.75;;;1.30;99.90;;;;;;4975178;28;20047;-83
2023/12/06 01:21:53;;;;;;;54.63;28.60;;;0.60;99.90;;;;;;4974995;28;20367;-84
2023/12/06 01:24:19;;;;;;;53.65;29.25;;;0.90;99.90;;;;;;4958283;28;20050;-85
2023/12/06 01:26:44;;;;;;;58.30;29.92;;;0.50;99.90;;;;;;4958199;28;20133;-84
2023/12/06 01:29:11;;;;;;;49.83;27.90;;;0.50;99.90;;;;;;4974441;28;20082;-84
2023/12/06 01:31:38;;;;;;;57.25;29.75;;;0.80;99.90;;;;;;4973911;28;20047;-84
2023/12/06 01:34:05;;;;;;;53.80;29.25;;;0.50;99.90;;;;;;4975395;28;20443;-86
2023/12/06 01:36:32;;;;;;;57.85;30.63;;;1.30;99.90;;;;;;4958217;28;20047;-85
2023/12/06 01:38:58;;;;;;;55.90;28.50;;;0.70;99.90;;;;;;4975196;28;20051;-83
2023/12/06 01:41:23;;;;;;;51.85;27.55;;;1.30;99.90;;;;;;4974888;28;20050;-83
2023/12/06 01:43:49;;;;;;;49.53;26.52;;;0.60;99.90;;;;;;4957371;28;20043;-84
2023/12/06 01:46:15;;;;;;;44.90;24.10;;;0.60;99.90;;;;;;4974362;28;20129;-83
2023/12/06 01:48:42;;;;;;;41.28;24.13;;;1.50;99.90;;;;;;4974060;28;20050;-84
2023/12/06 01:51:09;;;;;;;39.45;23.20;;;1.20;99.90;;;;;;4957214;28;20051;-83
2023/12/06 01:53:35;;;;;;;44.58;23.33;;;1.20;99.90;;;;;;4965518;28;20074;-84
2023/12/06 01:56:01;;;;;;;36.22;21.67;;;0.60;99.90;;;;;;4974699;28;20043;-84
2023/12/06 01:58:29;;;;;;;43.05;22.42;;;0.70;99.90;;;;;;4973757;28;20133;-83
2023/12/06 02:00:56;;;;;;;38.22;22.15;;;1.40;99.90;;;;;;4957064;28;20129;-84
2023/12/06 02:03:22;;;;;;;37.70;21.98;;;1.10;99.90;;;;;;4958411;28;20039;-83
2023/12/06 02:05:49;;;;;;;32.22;19.40;;;1.20;99.90;;;;;;4957233;28;20049;-84
2023/12/06 02:08:15;;;;;;;30.55;18.40;;;0.70;99.90;;;;;;4957517;28;20182;-84
2023/12/06 02:10:41;;;;;;;27.65;17.80;;;1.70;99.90;;;;;;4974725;28;20051;-84
2023/12/06 02:13:06;;;;;;;27.85;16.75;;;0.70;99.90;;;;;;4974333;28;20043;-85
2023/12/06 02:15:32;;;;;;;25.17;15.93;;;0.70;99.90;;;;;;4957039;28;20046;-84
2023/12/06 02:17:58;;;;;;;22.40;14.70;;;0.90;99.90;;;;;;4956780;28;20130;-84
2023/12/06 02:20:24;;;;;;;23.10;14.32;;;1.10;99.90;;;;;;4956977;28;20046;-84
2023/12/06 02:22:53;;;;;;;23.52;14.30;;;1.50;99.90;;;;;;4973852;28;20463;-84
2023/12/06 02:25:20;;;;;;;26.08;14.88;;;0.70;99.90;;;;;;4974440;28;20055;-84
2023/12/06 02:27:46;;;;;;;22.52;14.43;;;2.30;99.90;;;;;;4957153;28;20038;-84
2023/12/06 02:30:12;;;;;;;22.08;13.80;;;1.50;99.90;;;;;;4974685;28;20085;-84
2023/12/06 02:32:38;;;;;;;19.73;12.98;;;0.10;99.90;;;;;;4973674;28;20050;-84
2023/12/06 02:35:13;;;;;;;22.67;13.90;;;1.00;99.90;;;;;;4956803;28;20146;-84
2023/12/06 02:37:40;;;;;;;23.17;13.52;;;0.80;99.90;;;;;;4956899;28;20473;-83
2023/12/06 02:40:11;;;;;;;19.95;12.57;;;1.30;99.90;;;;;;4956204;28;20085;-83
2023/12/06 02:42:37;;;;;;;20.73;13.05;;;0.80;99.90;;;;;;4956731;28;20046;-83
2023/12/06 02:45:03;;;;;;;20.65;13.02;;;0.80;99.90;;;;;;4956263;28;20065;-83
2023/12/06 02:47:29;;;;;;;20.65;14.07;;;0.80;99.90;;;;;;4956575;28;20085;-83
2023/12/06 02:49:55;;;;;;;20.52;12.85;;;1.50;99.90;;;;;;4951186;29;20103;-84
2023/12/06 02:52:21;;;;;;;22.13;13.63;;;1.50;99.90;;;;;;4937148;29;20043;-85
2023/12/06 02:54:46;;;;;;;19.85;12.82;;;0.80;99.90;;;;;;4954336;29;20089;-83
2023/12/06 02:57:12;;;;;;;19.02;12.77;;;0.80;99.90;;;;;;4937810;29;20109;-84
2023/12/06 02:59:37;;;;;;;18.85;12.50;;;1.10;99.90;;;;;;4921747;29;20113;-83
2023/12/06 03:02:04;;;;;;;21.65;13.32;;;1.20;99.90;;;;;;4954473;29;20044;-83
2023/12/06 03:04:30;;;;;;;18.23;13.07;;;0.80;99.90;;;;;;4937652;29;20074;-83
2023/12/06 03:06:56;;;;;;;18.58;12.98;;;0.80;99.90;;;;;;4954052;29;20086;-83
2023/12/06 03:09:21;;;;;;;23.08;12.82;;;1.10;99.90;;;;;;4934278;29;20040;-83
2023/12/06 03:11:47;;;;;;;18.45;12.52;;;0.80;99.90;;;;;;4935349;29;20098;-84
2023/12/06 03:14:14;;;;;;;23.77;13.20;;;1.40;99.90;;;;;;4935406;29;20095;-87
2023/12/06 03:16:39;;;;;;;18.92;12.30;;;0.60;99.90;;;;;;4935138;29;20118;-84
2023/12/06 03:19:05;;;;;;;20.13;12.38;;;0.90;99.90;;;;;;4947373;29;20548;-85
2023/12/06 03:21:31;;;;;;;18.67;12.43;;;1.70;99.90;;;;;;4921469;29;20051;-83
2023/12/06 03:23:57;;;;;;;20.52;12.32;;;0.90;99.90;;;;;;4954371;29;20083;-84
2023/12/06 03:26:22;;;;;;;20.67;11.98;;;1.40;99.90;;;;;;4936599;29;20054;-84
2023/12/06 03:28:48;;;;;;;22.27;12.43;;;1.10;99.90;;;;;;4937076;29;20044;-85
2023/12/06 03:31:14;;;;;;;23.60;12.15;;;1.10;99.90;;;;;;4954031;29;20047;-84
2023/12/06 03:33:39;;;;;;;19.35;11.90;;;0.80;99.90;;;;;;4937032;29;20075;-83
2023/12/06 03:36:09;;;;;;;24.65;11.38;;;0.90;99.90;;;;;;4937266;29;20055;-85
2023/12/06 03:38:34;;;;;;;17.83;12.23;;;0.90;99.90;;;;;;4937060;29;20098;-83
2023/12/06 03:41:01;;;;;;;19.35;12.07;;;0.90;99.90;;;;;;4953828;29;20043;-84
2023/12/06 03:43:26;;;;;;;19.05;11.77;;;0.90;99.90;;;;;;4954096;29;20503;-84
2023/12/06 03:45:52;;;;;;;15.70;11.43;;;0.90;99.90;;;;;;4937182;29;20043;-84
2023/12/06 03:48:18;;;;;;;18.48;12.40;;;0.90;99.90;;;;;;4954102;29;20536;-84
2023/12/06 03:50:43;;;;;;;19.15;11.43;;;1.50;99.90;;;;;;4949980;28;20150;-85
2023/12/06 03:53:09;;;;;;;14.77;10.98;;;1.70;99.90;;;;;;4977527;28;20039;-85
2023/12/06 03:55:34;;;;;;;19.15;10.57;;;0.90;99.90;;;;;;4961380;28;20086;-84
2023/12/06 03:58:00;;;;;;;18.20;12.00;;;1.50;99.90;;;;;;4924747;29;20046;-83
2023/12/06 04:00:26;;;;;;;20.67;11.43;;;1.00;99.90;;;;;;4939989;29;20055;-86
2023/12/06 04:02:53;;;;;;;21.08;11.40;;;1.50;99.90;;;;;;4940268;28;20039;-85
2023/12/06 04:05:19;;;;;;;19.75;11.15;;;0.90;99.90;;;;;;4941620;29;20118;-83
2023/12/06 04:07:44;;;;;;;20.40;11.23;;;1.40;99.90;;;;;;4924610;29;20126;-85
2023/12/06 04:13:51;;;;;;;14.90;10.98;;;1.00;99.90;;;;;;4957446;29;20073;-84
2023/12/06 04:16:17;;;;;;;14.95;10.55;;;1.70;99.90;;;;;;4957546;29;20043;-84
2023/12/06 04:18:43;;;;;;;16.20;10.63;;;1.90;99.90;;;;;;4957562;28;20102;-84
2023/12/06 04:21:08;;;;;;;18.08;12.13;;;1.00;99.90;;;;;;4957012;29;20079;-85
2023/12/06 04:23:34;;;;;;;19.15;11.88;;;1.70;99.90;;;;;;4940014;29;20920;-84
2023/12/06 04:26:00;;;;;;;16.40;11.43;;;1.00;99.90;;;;;;4923901;29;20069;-84
2023/12/06 04:28:25;;;;;;;17.63;11.27;;;1.70;99.90;;;;;;4957374;29;20043;-84
2023/12/06 04:30:51;;;;;;;19.85;11.70;;;1.50;99.90;;;;;;4957316;28;20404;-85
2023/12/06 04:33:17;;;;;;;20.90;12.85;;;1.50;99.90;;;;;;4939692;29;20043;-85
2023/12/06 04:35:42;;;;;;;16.33;11.38;;;1.10;99.90;;;;;;4965242;28;20417;-84
2023/12/06 04:38:08;;;;;;;19.35;11.85;;;1.00;99.90;;;;;;4956832;28;20055;-85
2023/12/06 04:40:34;;;;;;;15.93;10.52;;;1.10;99.90;;;;;;4955485;29;20055;-84
2023/12/06 04:43:00;;;;;;;16.85;11.18;;;1.50;99.90;;;;;;4955686;29;20062;-85
2023/12/06 04:45:25;;;;;;;17.23;11.45;;;1.00;99.90;;;;;;4939590;29;20043;-85
2023/12/06 04:47:51;;;;;;;16.77;11.15;;;1.90;99.90;;;;;;4939894;29;20091;-85
2023/12/06 04:50:16;;;;;;;20.42;12.65;;;1.00;99.90;;;;;;4945347;28;20059;-86
2023/12/06 04:52:42;;;;;;;19.45;12.45;;;2.10;99.90;;;;;;4958492;28;20050;-84
2023/12/06 04:55:08;;;;;;;20.17;11.90;;;1.20;99.90;;;;;;4958581;28;20506;-85
2023/12/06 04:57:34;;;;;;;18.55;11.82;;;1.10;99.90;;;;;;4958475;28;20084;-84
2023/12/06 05:00:00;;;;;;;20.08;12.95;;;1.90;99.90;;;;;;4958390;28;20046;-85
2023/12/06 05:02:25;;;;;;;20.77;12.88;;;1.10;99.90;;;;;;4958149;28;20129;-84
2023/12/06 05:04:51;;;;;;;23.45;12.00;;;1.60;99.90;;;;;;4958470;28;20054;-85
2023/12/06 05:07:17;;;;;;;21.25;12.65;;;1.70;99.90;;;;;;4975575;28;20110;-84
2023/12/06 05:09:42;;;;;;;18.13;12.02;;;1.10;99.90;;;;;;4975291;28;20038;-85
2023/12/06 05:12:08;;;;;;;19.35;12.23;;;0.60;99.90;;;;;;4975589;28;20129;-84
2023/12/06 05:14:34;;;;;;;18.42;11.90;;;1.00;99.90;;;;;;4975607;28;20046;-84
2023/12/06 05:17:00;;;;;;;23.15;11.95;;;1.10;99.90;;;;;;4975716;28;20051;-84
2023/12/06 05:19:26;;;;;;;21.88;12.50;;;1.00;99.90;;;;;;4958162;28;20539;-85
2023/12/06 05:21:53;;;;;;;16.38;12.02;;;0.20;99.90;;;;;;4958187;28;20138;-85
2023/12/06 05:24:19;;;;;;;27.55;12.48;;;1.10;99.90;;;;;;4957705;28;20129;-84
2023/12/06 05:26:45;;;;;;;16.90;11.57;;;0.50;99.90;;;;;;4958288;28;20055;-85
2023/12/06 05:29:11;;;;;;;18.13;11.57;;;2.70;99.90;;;;;;4958046;28;20657;-85
2023/12/06 05:31:36;;;;;;;18.08;11.48;;;1.00;99.90;;;;;;4975425;28;20085;-85
2023/12/06 05:34:02;;;;;;;20.58;12.88;;;1.90;99.90;;;;;;4975389;28;20047;-86
2023/12/06 05:36:28;;;;;;;18.60;12.05;;;0.70;99.90;;;;;;4975200;28;20122;-85
2023/12/06 05:38:54;;;;;;;17.23;11.43;;;1.30;99.90;;;;;;4957792;28;20134;-85
2023/12/06 05:41:19;;;;;;;18.52;12.30;;;0.90;99.90;;;;;;4957814;28;20043;-85
2023/12/06 05:43:45;;;;;;;19.95;12.65;;;1.00;99.90;;;;;;4957834;28;20046;-85
2023/12/06 05:46:11;;;;;;;20.45;12.80;;;1.00;99.90;;;;;;4957447;28;20039;-87
2023/12/06 05:48:37;;;;;;;19.30;11.93;;;;;;;;;;4957426;28;20046;-84
2023/12/06 05:51:03;;;;;;;21.52;12.60;;;1.10;99.90;;;;;;4974972;28;20134;-86
2023/12/06 05:53:29;;;;;;;20.17;12.40;;;1.10;99.90;;;;;;4941737;28;20054;-84
2023/12/06 05:55:56;;;;;;;19.02;11.82;;;1.70;99.90;;;;;;4957480;28;20042;-85
2023/12/06 05:58:21;;;;;;;18.75;11.68;;;0.60;99.90;;;;;;4974623;28;20053;-85
2023/12/06 06:00:47;;;;;;;18.88;12.25;;;1.10;99.90;;;;;;4957524;28;20051;-85
2023/12/06 06:03:13;;;;;;;16.90;11.38;;;1.80;99.90;;;;;;4957215;28;20051;-86
2023/12/06 06:05:39;;;;;;;20.65;12.77;;;0.80;99.90;;;;;;4957266;28;20046;-84
2023/12/06 06:08:05;;;;;;;19.85;11.30;;;1.90;99.90;;;;;;4974431;28;20185;-85
2023/12/06 06:10:30;;;;;;;16.70;11.48;;;2.30;99.90;;;;;;4957345;28;20046;-84
2023/12/06 06:12:56;;;;;;;17.27;11.00;;;2.10;99.90;;;;;;4973367;28;20094;-84
2023/12/06 06:15:22;;;;;;;17.50;11.57;;;1.90;99.90;;;;;;4957068;28;20050;-85
2023/12/06 06:17:48;;;;;;;16.58;11.35;;;1.10;99.90;;;;;;4956918;28;20047;-85
2023/12/06 06:20:14;;;;;;;17.63;11.27;;;1.10;99.90;;;;;;4956666;28;20392;-84
2023/12/06 06:22:39;;;;;;;15.82;12.05;;;1.60;99.90;;;;;;4974046;28;20074;-85
2023/12/06 06:25:05;;;;;;;18.42;11.55;;;1.10;99.90;;;;;;4957168;28;20070;-85
2023/12/06 06:27:31;;;;;;;17.13;11.27;;;1.00;99.90;;;;;;4974361;28;20042;-86
2023/12/06 06:29:56;;;;;;;16.83;11.57;;;1.60;99.90;;;;;;4974205;28;20039;-85
2023/12/06 06:32:23;;;;;;;20.98;11.82;;;1.40;99.90;;;;;;4972736;28;20068;-84
2023/12/06 06:34:49;;;;;;;18.00;10.98;;;1.30;99.90;;;;;;4957320;28;20065;-84
2023/12/06 06:37:15;;;;;;;15.77;10.18;;;1.10;99.90;;;;;;4957007;28;20050;-85
2023/12/06 06:39:40;;;;;;;15.27;11.55;;;2.00;99.90;;;;;;4957030;28;20050;-84
2023/12/06 06:42:06;;;;;;;15.32;11.48;;;1.60;99.90;;;;;;4940642;28;20046;-85
2023/12/06 06:44:32;;;;;;;14.77;10.73;;;1.20;99.90;;;;;;4973887;28;20115;-85
2023/12/06 06:46:58;;;;;;;14.07;10.70;;;0.40;99.90;;;;;;4956944;28;20518;-86
2023/12/06 06:49:24;;;;;;;15.98;10.48;;;1.10;99.90;;;;;;4956197;28;20090;-85
2023/12/06 06:51:50;;;;;;;16.25;10.98;;;1.30;99.90;;;;;;4956511;28;20055;-86
2023/12/06 06:54:15;;;;;;;15.68;9.65;;;1.90;99.90;;;;;;4956134;28;20043;-85
2023/12/06 06:56:41;;;;;;;14.75;10.43;;;1.70;99.90;;;;;;4956996;28;20047;-85
2023/12/06 06:59:07;;;;;;;14.00;10.18;;;1.40;99.90;;;;;;4956142;28;20479;-86
2023/12/06 07:01:33;;;;;;;13.25;9.85;;;1.00;99.90;;;;;;4973743;28;20469;-85
2023/12/06 07:03:58;;;;;;;14.43;10.90;;;2.90;99.90;;;;;;4956179;28;20130;-87
2023/12/06 07:06:24;;;;;;;15.05;10.75;;;1.20;99.90;;;;;;4940305;28;20082;-85
2023/12/06 07:08:50;;;;;;;16.13;10.85;;;0.80;99.90;;;;;;4955899;28;20377;-85
2023/12/06 07:11:16;;;;;;;16.35;10.68;;;1.30;99.90;;;;;;4971800;28;20034;-85
2023/12/06 07:13:42;;;;;;;17.33;10.75;;;1.10;99.90;;;;;;4956399;28;20353;-85
2023/12/06 07:16:08;;;;;;;17.58;10.40;;;1.40;99.90;;;;;;4955275;28;20043;-86
2023/12/06 07:18:34;;;;;;;14.30;10.25;;;1.40;99.90;;;;;;4974044;28;20047;-85
2023/12/06 07:21:00;;;;;;;15.07;10.57;;;1.40;99.90;;;;;;4956096;28;20110;-85
2023/12/06 07:23:25;;;;;;;15.95;10.18;;;1.40;99.90;;;;;;4956356;28;20047;-85
2023/12/06 07:25:53;;;;;;;13.90;9.88;;;1.50;99.90;;;;;;4959662;28;20064;-84
2023/12/06 07:28:19;;;;;;;18.55;10.60;;;1.50;99.90;;;;;;4960261;28;20090;-84
2023/12/06 07:30:44;;;;;;;14.40;10.05;;;2.50;99.90;;;;;;4943836;28;20526;-84
2023/12/06 07:33:11;;;;;;;13.90;10.65;;;1.60;99.90;;;;;;4977281;28;20076;-85
2023/12/06 07:35:37;;;;;;;14.00;10.23;;;2.20;99.90;;;;;;4976128;28;20492;-85
2023/12/06 07:38:04;;;;;;;13.05;9.68;;;1.60;99.90;;;;;;4959878;28;20049;-86
2023/12/06 07:40:30;;;;;;;14.43;10.23;;;1.60;99.90;;;;;;4975987;28;20058;-86
2023/12/06 07:42:59;;;;;;;14.52;10.60;;;1.00;99.90;;;;;;4959335;28;20046;-86
2023/12/06 07:45:24;;;;;;;14.27;9.82;;;2.30;99.90;;;;;;4959694;28;20414;-86
2023/12/06 07:47:50;;;;;;;14.80;10.57;;;1.00;99.90;;;;;;4960250;28;20102;-87
2023/12/06 07:50:16;;;;;;;14.88;9.88;;;1.50;99.90;;;;;;4959760;28;20407;-87
2023/12/06 07:52:42;;;;;;;15.40;10.07;;;1.70;99.90;;;;;;4959505;28;20444;-87
2023/12/06 07:55:09;;;;;;;15.20;9.70;;;2.20;99.90;;;;;;4959706;28;20381;-85
2023/12/06 07:57:36;;;;;;;14.02;10.68;;;1.70;99.90;;;;;;4975243;28;20133;-85
2023/12/06 08:00:04;;;;;;;13.27;10.30;;;2.40;99.90;;;;;;4959563;28;20051;-84
2023/12/06 08:02:32;;;;;;;16.05;11.02;;;1.70;99.90;;;;;;4943040;28;20046;-86
2023/12/06 08:04:58;;;;;;;16.00;11.25;;;2.40;99.90;;;;;;4976570;28;20097;-86
2023/12/06 08:07:24;;;;;;;16.13;11.10;;;2.10;99.90;;;;;;4976756;28;20427;-85
2023/12/06 08:09:52;;;;;;;18.75;11.93;;;2.20;99.90;;;;;;4959353;28;20568;-87
2023/12/06 08:12:18;;;;;;;16.30;11.68;;;2.90;99.90;;;;;;4976206;28;20042;-84
2023/12/06 08:14:43;;;;;;;21.05;11.98;;;1.80;99.90;;;;;;4975274;28;20170;-85
2023/12/06 08:17:09;;;;;;;16.25;10.95;;;1.90;99.90;;;;;;4959376;28;20492;-84
2023/12/06 08:19:35;;;;;;;16.58;11.70;;;2.50;99.90;;;;;;4976581;28;20046;-85
2023/12/06 08:22:00;;;;;;;14.50;10.88;;;2.50;99.90;;;;;;4959061;28;20042;-86
2023/12/06 08:24:26;;;;;;;15.20;10.95;;;1.90;99.90;;;;;;4958065;28;20569;-85
2023/12/06 08:26:52;;;;;;;16.60;10.45;;;2.40;99.90;;;;;;4958654;28;20062;-85
2023/12/06 08:29:18;;;;;;;15.45;11.20;;;1.90;99.90;;;;;;4959192;28;20368;-85
2023/12/06 08:31:43;;;;;;;15.13;11.40;;;2.40;99.90;;;;;;4959030;28;20078;-85
2023/12/06 08:34:09;;;;;;;16.73;9.93;;;2.20;99.90;;;;;;4958810;28;20039;-85
2023/12/06 08:36:35;;;;;;;15.52;10.82;;;3.10;99.90;;;;;;4940656;28;20562;-85
2023/12/06 08:39:00;;;;;;;17.05;10.98;;;2.10;99.90;;;;;;4975223;28;20125;-85
2023/12/06 08:41:26;;;;;;;13.25;9.68;;;2.70;99.90;;;;;;4976227;28;20122;-83
2023/12/06 08:43:52;;;;;;;15.63;9.10;;;2.00;99.90;;;;;;4958937;28;20050;-86
2023/12/06 08:46:23;;;;;;;12.68;9.30;;;2.40;99.90;;;;;;4942417;28;20051;-90
2023/12/06 08:48:49;;;;;;;12.85;9.38;;;2.10;99.90;;;;;;4975634;28;20105;-85
2023/12/06 08:51:15;;;;;;;20.52;11.00;;;2.80;99.90;;;;;;4956504;28;20050;-85
2023/12/06 08:53:40;;;;;;;18.00;12.02;;;1.40;99.90;;;;;;4942715;28;20054;-85
2023/12/06 08:56:06;;;;;;;18.23;11.05;;;1.60;99.90;;;;;;4958472;28;20070;-85
2023/12/06 08:58:32;;;;;;;19.25;12.25;;;1.50;99.90;;;;;;4981767;28;20051;-86
2023/12/06 09:00:58;;;;;;;23.15;13.38;;;2.10;99.90;;;;;;4923470;29;20043;-86
2023/12/06 09:03:23;;;;;;;20.67;12.32;;;1.90;99.90;;;;;;4951880;28;20047;-87
2023/12/06 09:05:49;;;;;;;16.23;11.90;;;2.20;99.90;;;;;;4942603;28;20046;-84
2023/12/06 09:08:15;;;;;;;19.10;12.18;;;2.60;99.90;;;;;;4975215;28;20532;-86
2023/12/06 09:10:41;;;;;;;17.00;12.35;;;3.00;99.90;;;;;;4958033;28;20048;-86
2023/12/06 09:13:07;;;;;;;18.77;12.50;;;3.10;99.90;;;;;;4957586;28;20042;-84
2023/12/06 09:15:33;;;;;;;16.58;10.68;;;2.00;99.90;;;;;;4957280;28;20071;-84
2023/12/06 09:17:59;;;;;;;14.88;11.20;;;2.20;99.90;;;;;;4957712;28;20049;-85
2023/12/06 09:20:24;;;;;;;19.02;10.15;;;3.00;99.90;;;;;;4957526;28;20081;-85
2023/12/06 09:22:50;;;;;;;21.40;11.05;;;3.20;99.90;;;;;;4975463;28;20051;-83
2023/12/06 09:25:16;;;;;;;14.57;10.80;;;3.10;99.90;;;;;;4957616;28;20085;-84
2023/12/06 09:27:42;;;;;;;19.27;12.98;;;2.10;99.90;;;;;;4975228;28;20061;-84
2023/12/06 09:30:09;;;;;;;17.80;12.82;;;2.80;99.90;;;;;;4974290;28;20126;-85
2023/12/06 09:32:35;;;;;;;16.33;12.20;;;2.00;99.90;;;;;;4957719;28;20047;-85
2023/12/06 09:35:00;;;;;;;16.60;12.70;;;1.60;99.90;;;;;;4957863;28;20043;-84
2023/12/06 09:37:26;;;;;;;20.90;14.90;;;2.00;99.90;;;;;;4958052;28;20550;-84
2023/12/06 09:39:53;;;;;;;17.20;12.20;;;2.10;99.90;;;;;;4957035;28;20035;-84
2023/12/06 09:42:20;;;;;;;17.08;11.93;;;2.20;99.90;;;;;;4974824;28;20046;-84
2023/12/06 09:44:45;;;;;;;14.02;11.30;;;2.70;99.90;;;;;;4941670;28;20047;-85
2023/12/06 09:47:12;;;;;;;14.38;11.65;;;2.90;99.90;;;;;;4975217;28;20460;-84
2023/12/06 09:49:38;;;;;;;18.17;12.52;;;2.00;99.90;;;;;;4956192;28;20062;-85
2023/12/06 09:52:24;;;;;;;18.20;11.82;;;2.70;99.90;;;;;;4956769;28;20090;-85
2023/12/06 09:54:51;;;;;;;20.20;12.32;;;2.70;99.90;;;;;;4957479;28;20126;-83
2023/12/06 09:57:17;;;;;;;18.83;12.80;;;2.50;99.90;;;;;;4941510;28;20047;-84
2023/12/06 09:59:43;;;;;;;18.50;13.00;;;2.00;99.90;;;;;;4974117;28;20046;-84
2023/12/06 10:02:09;;;;;;;17.42;13.23;;;3.10;99.90;;;;;;4956957;28;20442;-84
2023/12/06 10:04:35;;;;;;;13.82;11.32;;;3.40;99.90;;;;;;4957435;28;20144;-86
2023/12/06 10:07:01;;;;;;;17.95;12.07;;;3.00;99.90;;;;;;4956303;28;20042;-83
2023/12/06 10:09:27;;;;;;;17.65;12.65;;;1.70;99.90;;;;;;4956479;28;20051;-84
2023/12/06 10:12:07;;;;;;;24.67;13.10;;;1.90;99.90;;;;;;4974502;28;20050;-84
2023/12/06 10:14:33;;;;;;;20.65;12.93;;;2.20;99.90;;;;;;4957215;28;20057;-85
2023/12/06 10:16:58;;;;;;;19.58;12.30;;;3.30;99.90;;;;;;4956920;28;20513;-84
2023/12/06 10:19:25;;;;;;;16.88;11.82;;;2.20;99.90;;;;;;4956754;28;20050;-85
2023/12/06 10:21:52;;;;;;;18.75;11.85;;;2.80;99.90;;;;;;4955882;28;20093;-83
2023/12/06 10:24:17;;;;;;;20.30;13.13;;;2.20;99.90;;;;;;4956823;28;20438;-84
2023/12/06 10:26:43;;;;;;;20.55;13.50;;;3.30;99.90;;;;;;4956905;28;20093;-85
2023/12/06 10:29:09;;;;;;;20.45;12.75;;;3.30;99.90;;;;;;4957143;28;20037;-85
2023/12/06 10:31:41;;;;;;;21.15;12.73;;;2.30;99.90;;;;;;4956426;28;20499;-83
2023/12/06 10:34:08;;;;;;;18.42;12.60;;;2.30;99.90;;;;;;4974017;28;20093;-84
2023/12/06 10:36:36;;;;;;;19.23;12.40;;;2.50;99.90;;;;;;4956350;28;20403;-86
2023/12/06 10:39:06;;;;;;;16.23;11.93;;;1.70;99.90;;;;;;4956946;28;20050;-83
2023/12/06 10:41:33;;;;;;;19.30;12.07;;;2.30;99.90;;;;;;4956347;28;20458;-85
2023/12/06 10:44:01;;;;;;;17.88;12.45;;;1.80;99.90;;;;;;4956276;28;20053;-85
2023/12/06 10:46:28;;;;;;;19.45;13.00;;;2.50;99.90;;;;;;4973078;28;20050;-83
2023/12/06 10:48:56;;;;;;;19.80;12.43;;;2.30;99.90;;;;;;4973883;28;20039;-83
2023/12/06 10:51:24;;;;;;;18.10;12.63;;;2.80;99.90;;;;;;4954955;28;20054;-82
2023/12/06 10:53:52;;;;;;;17.38;12.35;;;2.30;99.90;;;;;;4974915;28;20038;-85
2023/12/06 10:56:19;;;;;;;15.68;10.82;;;2.40;99.90;;;;;;4949793;28;20557;-85
2023/12/06 10:58:46;;;;;;;15.95;10.82;;;2.30;99.90;;;;;;4956071;28;20130;-86
2023/12/06 11:01:13;;;;;;;17.90;10.82;;;2.90;99.90;;;;;;4949564;28;20094;-84
2023/12/06 11:03:39;;;;;;;16.40;10.60;;;2.50;99.90;;;;;;4973656;28;20039;-87
2023/12/06 11:06:22;;;;;;;14.75;9.90;;;3.30;99.90;;;;;;4972477;28;20071;-87
2023/12/06 11:09:08;;;;;;;15.25;11.02;;;2.60;99.90;;;;;;4961042;28;20038;-85
2023/12/06 11:11:40;;;;;;;;;;;3.40;99.90;;;;;;4956915;28;20046;-84
2023/12/06 11:14:15;;;;;;;17.42;10.55;;;3.40;99.90;;;;;;4956466;28;19933;-84
2023/12/06 11:17:04;;;;;;;13.63;10.00;;;2.70;99.90;;;;;;4955248;28;20053;-84
2023/12/06 11:19:31;;;;;;;17.50;9.00;;;2.70;99.90;;;;;;4955545;28;20054;-85
2023/12/06 11:21:57;;;;;;;16.83;9.80;;;3.70;99.90;;;;;;4971372;28;20058;-84
2023/12/06 11:24:23;;;;;;;14.20;9.23;;;2.80;99.90;;;;;;4956220;28;20083;-85
2023/12/06 11:26:50;;;;;;;13.70;8.60;;;2.80;99.90;;;;;;4955632;28;20082;-84
2023/12/06 11:29:17;;;;;;;10.25;8.30;;;3.30;99.90;;;;;;4956130;28;20049;-84
2023/12/06 11:31:43;;;;;;;10.18;8.38;;;2.90;99.90;;;;;;4972511;28;20050;-84
2023/12/06 11:34:09;;;;;;;13.57;8.43;;;3.30;99.90;;;;;;4955884;28;20411;-84
2023/12/06 11:36:37;;;;;;;13.27;8.20;;;3.90;99.90;;;;;;4972366;28;20047;-84
2023/12/06 11:39:18;;;;;;;11.45;8.30;;;3.50;99.90;;;;;;4956071;28;20109;-86
2023/12/06 11:41:52;;;;;;;10.63;7.53;;;3.80;99.90;;;;;;4955537;28;20052;-83
2023/12/06 11:44:18;;;;;;;16.88;7.90;;;2.90;99.90;;;;;;4949276;28;20113;-86
2023/12/06 11:46:55;;;;;;;11.18;7.32;;;3.50;99.90;;;;;;4957906;28;20054;-91
2023/12/06 11:49:23;;;;;;;9.25;7.55;;;3.60;99.90;;;;;;4940031;28;20046;-92
2023/12/06 11:51:59;;;;;;;9.50;7.78;;;3.00;99.90;;;;;;4988026;28;20051;-87
2023/12/06 11:54:26;;;;;;;11.38;7.78;;;3.80;99.90;;;;;;4957144;28;20042;-89
2023/12/06 11:56:52;;;;;;;10.98;7.72;;;2.80;99.90;;;;;;4956819;28;20082;-89
2023/12/06 11:59:18;;;;;;;10.30;8.15;;;2.90;99.90;;;;;;4956826;28;20054;-89
2023/12/06 12:01:45;;;;;;;10.20;8.35;;;3.40;99.90;;;;;;4956761;28;20050;-88
2023/12/06 12:04:11;;;;;;;10.70;8.02;;;3.50;99.90;;;;;;4989221;28;20035;-87
2023/12/06 12:06:37;;;;;;;13.57;8.07;;;3.80;99.90;;;;;;4956629;28;20055;-87
2023/12/06 12:09:03;;;;;;;10.07;8.25;;;3.20;99.90;;;;;;4956653;28;20057;-90
2023/12/06 12:11:31;;;;;;;11.23;8.15;;;3.90;99.90;;;;;;4990166;28;20388;-89
2023/12/06 12:13:58;;;;;;;11.20;7.60;;;3.40;99.90;;;;;;4960075;28;20078;-90
2023/12/06 12:16:24;;;;;;;15.73;8.13;;;3.70;99.90;;;;;;4992865;28;20047;-88
2023/12/06 12:18:50;;;;;;;9.60;7.55;;;3.80;99.90;;;;;;4943947;28;20043;-89
2023/12/06 12:21:19;;;;;;;9.88;7.72;;;2.90;99.90;;;;;;4959949;28;20464;-88
2023/12/06 12:23:48;;;;;;;12.98;8.43;;;3.10;99.90;;;;;;4960649;28;20047;-87
2023/12/06 12:26:15;;;;;;;11.43;8.15;;;3.00;99.90;;;;;;4960238;28;20045;-89
2023/12/06 12:28:42;;;;;;;12.60;8.52;;;3.10;99.90;;;;;;4992219;28;20042;-89
2023/12/06 12:31:13;;;;;;;11.30;8.10;;;2.80;99.90;;;;;;4976946;28;20070;-88
2023/12/06 12:33:41;;;;;;;8.75;7.50;;;2.90;99.90;;;;;;4959540;28;20047;-86
2023/12/06 12:36:07;;;;;;;9.77;7.72;;;2.80;99.90;;;;;;4959140;28;20046;-85
2023/12/06 12:38:34;;;;;;;11.98;7.63;;;2.90;99.90;;;;;;4976340;28;20054;-85